Time;durP1;ratioP1;P1;durP2;ratioP2;P2;SDS_P1;SDS_P2;PMS_P1;PMS_P2;Temp;Humidity;BMP_temperature;BMP_pressure;BME280_temperature;BME280_humidity;BME280_pressure;Samples;Min_cycle;Max_cycle;Signal;HPM_P1;HPM_P2
2023/05/08 00:01:36;;;;;;;9.57;7.30;;;8.50;59.40;;;;;;5001278;28;114587;-81
2023/05/08 00:04:03;;;;;;;9.63;7.15;;;8.40;59.80;;;;;;5013543;28;114986;-81
2023/05/08 00:06:31;;;;;;;8.98;6.95;;;8.30;60.20;;;;;;5000712;28;117537;-81
2023/05/08 00:08:58;;;;;;;9.30;7.65;;;8.30;61.20;;;;;;4999049;28;118341;-82
2023/05/08 00:11:27;;;;;;;9.43;7.28;;;8.40;60.60;;;;;;5001592;28;119204;-80
2023/05/08 00:13:54;;;;;;;9.50;7.18;;;8.60;60.90;;;;;;5011451;28;115188;-81
2023/05/08 00:16:21;;;;;;;9.65;7.60;;;8.70;60.90;;;;;;5001214;28;114595;-81
2023/05/08 00:18:48;;;;;;;9.15;7.30;;;8.80;60.20;;;;;;5018912;28;114383;-80
2023/05/08 00:21:15;;;;;;;11.20;8.38;;;8.90;60.10;;;;;;5001486;28;114620;-80
2023/05/08 00:23:42;;;;;;;8.68;6.85;;;9.20;59.60;;;;;;5000762;28;117093;-81
2023/05/08 00:26:09;;;;;;;9.15;7.35;;;9.20;59.90;;;;;;5001119;28;114682;-81
2023/05/08 00:28:36;;;;;;;9.52;7.75;;;9.10;59.30;;;;;;5001905;28;114430;-81
2023/05/08 00:31:03;;;;;;;10.65;8.00;;;9.00;59.80;;;;;;5001892;28;114318;-81
2023/05/08 00:33:30;;;;;;;8.68;7.25;;;8.80;59.60;;;;;;4998808;28;117180;-81
2023/05/08 00:35:59;;;;;;;10.00;7.07;;;8.70;60.50;;;;;;5000853;28;115416;-79
2023/05/08 00:38:30;;;;;;;10.07;7.38;;;8.80;59.90;;;;;;5010951;28;118551;-81
2023/05/08 00:40:57;;;;;;;10.25;7.78;;;8.70;59.70;;;;;;5001400;28;114631;-82
2023/05/08 00:43:26;;;;;;;11.85;8.77;;;8.60;59.70;;;;;;5000536;28;114942;-81
2023/05/08 00:45:58;;;;;;;9.70;6.75;;;8.50;60.10;;;;;;5000435;28;115468;-81
2023/05/08 00:48:27;;;;;;;9.55;6.82;;;8.60;59.50;;;;;;4997874;28;114558;-81
2023/05/08 00:50:55;;;;;;;8.68;6.32;;;8.40;59.60;;;;;;4994402;28;115258;-81
2023/05/08 00:53:22;;;;;;;8.77;6.97;;;8.20;59.70;;;;;;5002085;28;114804;-81
2023/05/08 00:55:50;;;;;;;8.63;6.70;;;8.00;60.20;;;;;;5019891;28;115400;-80
2023/05/08 00:58:21;;;;;;;9.63;5.97;;;7.90;61.00;;;;;;4986093;28;114815;-81
2023/05/08 01:00:48;;;;;;;8.40;6.60;;;8.10;60.50;;;;;;5004582;28;114429;-81
2023/05/08 01:03:15;;;;;;;8.32;6.88;;;8.10;60.60;;;;;;4985272;28;115000;-81
2023/05/08 01:05:43;;;;;;;9.43;6.53;;;8.20;60.60;;;;;;4988798;28;115001;-80
2023/05/08 01:08:10;;;;;;;9.65;6.97;;;8.10;60.80;;;;;;5023778;28;114479;-81
2023/05/08 01:11:25;;;;;;;7.60;6.25;;;8.10;60.80;;;;;;5024109;28;114507;-81
2023/05/08 01:14:12;;;;;;;10.77;7.07;;;8.10;60.20;;;;;;5014861;27;115446;-81
2023/05/08 01:16:57;;;;;;;8.75;6.70;;;7.90;60.50;;;;;;5020543;28;116559;-82
2023/05/08 01:19:34;;;;;;;9.02;6.32;;;7.90;60.90;;;;;;5006095;28;114552;-81
2023/05/08 01:22:34;;;;;;;8.98;7.22;;;7.90;60.90;;;;;;5004360;28;114432;-81
2023/05/08 01:25:12;;;;;;;7.78;5.78;;;7.90;60.70;;;;;;5005076;28;117746;-81
2023/05/08 01:28:00;;;;;;;8.32;5.65;;;7.80;62.00;;;;;;5021802;28;114653;-81
2023/05/08 01:30:43;;;;;;;8.02;6.60;;;7.90;62.50;;;;;;5022711;27;115007;-81
2023/05/08 01:33:16;;;;;;;10.00;6.65;;;8.20;60.70;;;;;;5004928;28;115453;-81
2023/05/08 01:35:52;;;;;;;8.35;6.57;;;8.20;60.60;;;;;;4985685;28;116001;-80
2023/05/08 01:38:25;;;;;;;8.73;6.35;;;8.30;60.70;;;;;;5020667;28;116848;-81
2023/05/08 01:40:55;;;;;;;8.35;6.28;;;8.40;59.90;;;;;;5023713;27;114410;-81
2023/05/08 01:43:30;;;;;;;9.80;7.10;;;8.20;60.60;;;;;;5023290;28;114721;-80
2023/05/08 01:45:58;;;;;;;9.13;6.78;;;8.20;60.00;;;;;;5011098;28;114898;-80
2023/05/08 01:48:29;;;;;;;9.18;7.18;;;8.10;60.50;;;;;;4999412;28;115260;-80
2023/05/08 01:51:03;;;;;;;7.00;5.60;;;8.10;60.50;;;;;;4980538;28;114561;-80
2023/05/08 01:53:44;;;;;;;9.25;7.20;;;8.00;61.20;;;;;;5003032;28;114722;-80
2023/05/08 01:56:14;;;;;;;8.00;6.25;;;8.20;60.90;;;;;;5016360;28;115767;-80
2023/05/08 01:58:42;;;;;;;8.70;6.82;;;8.30;60.60;;;;;;5001338;28;114667;-81
2023/05/08 02:01:11;;;;;;;7.82;6.00;;;8.50;59.80;;;;;;5002107;28;114523;-80
2023/05/08 02:03:38;;;;;;;7.60;5.82;;;8.40;59.80;;;;;;5020345;27;114680;-80
2023/05/08 02:06:06;;;;;;;8.77;6.65;;;8.30;60.20;;;;;;5017224;28;114903;-80
2023/05/08 02:08:35;;;;;;;7.30;6.10;;;8.30;60.10;;;;;;5001259;28;115691;-80
2023/05/08 02:11:03;;;;;;;7.75;5.95;;;8.30;60.40;;;;;;5017428;28;114967;-80
2023/05/08 02:13:30;;;;;;;7.80;5.43;;;8.50;60.40;;;;;;5001253;28;114460;-79
2023/05/08 02:15:58;;;;;;;7.60;5.63;;;8.50;60.10;;;;;;5016111;28;120801;-79
2023/05/08 02:18:25;;;;;;;7.57;6.32;;;8.50;60.70;;;;;;5013061;28;114664;-79
2023/05/08 02:20:53;;;;;;;7.05;5.80;;;8.70;59.80;;;;;;4985005;28;114396;-81
2023/05/08 02:23:21;;;;;;;7.90;5.65;;;8.70;59.30;;;;;;4998076;28;114678;-80
2023/05/08 02:25:49;;;;;;;7.38;5.68;;;8.70;59.20;;;;;;4998261;28;115600;-80
2023/05/08 02:28:16;;;;;;;7.35;6.00;;;8.70;59.50;;;;;;5001845;28;114684;-80
2023/05/08 02:30:43;;;;;;;9.60;6.30;;;8.60;59.80;;;;;;5001539;28;114596;-80
2023/05/08 02:33:10;;;;;;;6.15;4.65;;;8.70;58.90;;;;;;5003383;28;114124;-80
2023/05/08 02:35:39;;;;;;;6.40;4.97;;;8.50;59.80;;;;;;5014663;28;115464;-80
2023/05/08 02:38:09;;;;;;;7.63;5.47;;;8.40;60.40;;;;;;5021142;28;114553;-80
2023/05/08 02:40:47;;;;;;;6.55;5.07;;;8.50;60.20;;;;;;5018052;28;114328;-80
2023/05/08 02:43:14;;;;;;;7.18;5.75;;;8.50;60.20;;;;;;5000839;28;114443;-80
2023/05/08 02:45:48;;;;;;;7.43;5.82;;;8.50;59.30;;;;;;5002281;28;115248;-81
2023/05/08 02:48:23;;;;;;;7.82;5.90;;;8.50;59.20;;;;;;4984760;28;114662;-80
2023/05/08 02:51:08;;;;;;;9.30;6.07;;;8.40;59.90;;;;;;5002742;28;114878;-80
2023/05/08 02:53:39;;;;;;;9.95;6.32;;;8.30;59.80;;;;;;5006447;28;114977;-81
2023/05/08 02:56:10;;;;;;;7.22;5.65;;;8.40;60.10;;;;;;5004916;28;115027;-81
2023/05/08 02:58:45;;;;;;;7.15;4.97;;;8.40;60.10;;;;;;5019479;28;117307;-80
2023/05/08 03:01:24;;;;;;;6.82;5.22;;;8.50;60.50;;;;;;4994871;28;114576;-80
2023/05/08 03:04:02;;;;;;;7.90;5.60;;;8.50;60.60;;;;;;4989700;28;114528;-80
2023/05/08 03:06:33;;;;;;;7.18;5.90;;;8.60;59.70;;;;;;4985496;28;114995;-80
2023/05/08 03:09:00;;;;;;;6.90;5.00;;;8.70;59.50;;;;;;4983069;28;114844;-80
2023/05/08 03:11:41;;;;;;;6.45;4.97;;;8.70;59.30;;;;;;5002263;28;114654;-81
2023/05/08 03:14:12;;;;;;;7.10;5.65;;;8.70;59.80;;;;;;4986951;27;114605;-81
2023/05/08 03:16:40;;;;;;;6.63;5.20;;;8.70;60.00;;;;;;4988531;28;114827;-81
2023/05/08 03:19:19;;;;;;;7.18;5.63;;;8.80;60.20;;;;;;5021517;28;116495;-81
2023/05/08 03:21:51;;;;;;;8.10;6.10;;;8.80;59.60;;;;;;5001797;28;114938;-81
2023/05/08 03:24:18;;;;;;;6.70;5.50;;;8.70;59.60;;;;;;5003301;28;114611;-81
2023/05/08 03:26:46;;;;;;;7.85;5.90;;;8.70;59.60;;;;;;5018027;28;114947;-81
2023/05/08 03:29:14;;;;;;;8.65;6.15;;;8.70;59.00;;;;;;4996458;28;114674;-82
2023/05/08 03:31:41;;;;;;;6.65;5.53;;;8.60;59.90;;;;;;4972373;28;114491;-82
2023/05/08 03:34:08;;;;;;;7.20;4.85;;;8.60;59.80;;;;;;5000721;28;114313;-81
2023/05/08 03:36:35;;;;;;;8.52;6.90;;;8.50;60.20;;;;;;4969888;28;116993;-81
2023/05/08 03:39:03;;;;;;;7.72;6.43;;;8.50;59.60;;;;;;5004304;27;114667;-81
2023/05/08 03:41:30;;;;;;;8.35;6.22;;;8.50;59.40;;;;;;5005860;28;115404;-81
2023/05/08 03:43:57;;;;;;;10.27;6.90;;;8.40;60.20;;;;;;5018319;28;114465;-81
2023/05/08 03:46:25;;;;;;;7.72;6.63;;;8.30;59.70;;;;;;5013734;28;115504;-81
2023/05/08 03:48:52;;;;;;;9.48;7.10;;;8.20;60.20;;;;;;5000377;28;116221;-81
2023/05/08 03:51:19;;;;;;;10.00;7.30;;;8.20;60.00;;;;;;5015590;28;114325;-81
2023/05/08 03:53:46;;;;;;;9.20;7.22;;;8.10;59.90;;;;;;4983914;28;114698;-80
2023/05/08 03:56:13;;;;;;;10.70;7.30;;;8.10;59.90;;;;;;5014555;28;115141;-79
2023/05/08 03:58:51;;;;;;;7.60;5.28;;;8.10;60.30;;;;;;5003796;27;114566;-80
2023/05/08 04:01:30;;;;;;;10.63;7.13;;;8.10;60.80;;;;;;4998534;28;114591;-80
2023/05/08 04:04:17;;;;;;;8.80;6.55;;;8.00;60.60;;;;;;5004434;28;116458;-81
2023/05/08 04:07:01;;;;;;;15.00;9.80;;;7.90;60.60;;;;;;5003268;28;114990;-81
2023/05/08 04:09:55;;;;;;;12.27;8.13;;;7.80;60.20;;;;;;5000881;28;114631;-81
2023/05/08 04:12:56;;;;;;;17.02;9.68;;;7.70;60.50;;;;;;5017002;27;114530;-81
2023/05/08 04:15:26;;;;;;;9.45;7.10;;;7.60;60.90;;;;;;4988603;28;114534;-81
2023/05/08 04:18:15;;;;;;;10.15;6.78;;;7.70;61.20;;;;;;4985688;28;119782;-81
2023/05/08 04:20:45;;;;;;;11.75;7.45;;;7.70;60.90;;;;;;4999563;28;114616;-81
2023/05/08 04:23:14;;;;;;;10.50;6.90;;;7.70;61.10;;;;;;4984639;28;114397;-81
2023/05/08 04:25:41;;;;;;;9.10;6.68;;;7.70;61.40;;;;;;5009058;27;114385;-81
2023/05/08 04:28:09;;;;;;;8.18;6.15;;;7.90;61.10;;;;;;5000559;28;117016;-81
2023/05/08 04:30:38;;;;;;;7.97;6.00;;;8.10;61.00;;;;;;4999444;28;114635;-82
2023/05/08 04:33:06;;;;;;;9.57;5.97;;;8.20;59.60;;;;;;5017913;28;114567;-81
2023/05/08 04:35:34;;;;;;;8.70;6.13;;;8.00;59.30;;;;;;4984876;28;114531;-81
2023/05/08 04:38:03;;;;;;;7.95;5.80;;;7.80;60.00;;;;;;4999253;28;114975;-81
2023/05/08 04:40:31;;;;;;;9.20;5.82;;;7.80;60.60;;;;;;5012352;28;115145;-81
2023/05/08 04:42:58;;;;;;;7.75;5.63;;;7.80;60.20;;;;;;4999810;28;114553;-81
2023/05/08 04:45:28;;;;;;;8.50;6.10;;;7.80;60.30;;;;;;4985211;28;114761;-81
2023/05/08 04:47:55;;;;;;;6.53;5.30;;;7.90;60.40;;;;;;4998443;28;115151;-81
2023/05/08 04:50:23;;;;;;;7.97;6.38;;;8.10;60.40;;;;;;5014144;28;115731;-80
2023/05/08 04:52:50;;;;;;;6.82;5.13;;;8.20;59.50;;;;;;5015801;28;115452;-81
2023/05/08 04:55:17;;;;;;;6.63;5.07;;;8.20;60.20;;;;;;5011543;28;114476;-80
2023/05/08 04:57:46;;;;;;;6.60;5.15;;;8.10;59.50;;;;;;5010504;28;118018;-80
2023/05/08 05:00:17;;;;;;;7.35;4.70;;;8.00;59.90;;;;;;5018109;28;114908;-80
2023/05/08 05:02:45;;;;;;;7.47;5.25;;;8.20;60.40;;;;;;5030483;27;114624;-80
2023/05/08 05:05:12;;;;;;;7.15;4.93;;;8.20;60.00;;;;;;5015901;28;114345;-80
2023/05/08 05:07:40;;;;;;;7.18;5.18;;;8.40;59.30;;;;;;5013449;28;115593;-80
2023/05/08 05:10:09;;;;;;;6.88;5.32;;;8.50;58.50;;;;;;5007690;28;115680;-80
2023/05/08 05:12:37;;;;;;;7.43;4.93;;;8.20;57.90;;;;;;5026149;27;114406;-80
2023/05/08 05:15:05;;;;;;;6.75;4.90;;;8.10;60.20;;;;;;4992074;28;114506;-80
2023/05/08 05:17:35;;;;;;;7.57;5.00;;;8.40;59.10;;;;;;4996180;28;116098;-80
2023/05/08 05:20:04;;;;;;;6.50;4.60;;;8.60;58.30;;;;;;5010863;28;114788;-80
2023/05/08 05:22:32;;;;;;;7.22;5.28;;;8.70;57.70;;;;;;5027421;27;114477;-79
2023/05/08 05:24:59;;;;;;;7.32;5.35;;;8.50;56.90;;;;;;5014331;28;114516;-81
2023/05/08 05:27:28;;;;;;;5.63;4.22;;;8.20;57.40;;;;;;5011454;28;115134;-80
2023/05/08 05:29:56;;;;;;;6.95;4.70;;;8.20;58.40;;;;;;5001928;28;114942;-81
2023/05/08 05:32:25;;;;;;;8.20;4.25;;;8.10;57.80;;;;;;4998069;28;114437;-81
2023/05/08 05:34:53;;;;;;;6.18;4.63;;;7.90;58.70;;;;;;5012968;28;114394;-81
2023/05/08 05:37:21;;;;;;;7.25;4.55;;;8.00;58.50;;;;;;5009442;28;114829;-80
2023/05/08 05:39:51;;;;;;;6.35;4.70;;;8.00;58.30;;;;;;5016447;28;115972;-79
2023/05/08 05:42:18;;;;;;;7.25;4.68;;;8.10;58.30;;;;;;5012579;28;114631;-79
2023/05/08 05:44:45;;;;;;;6.57;4.57;;;8.10;57.70;;;;;;5017334;28;114646;-81
2023/05/08 05:47:13;;;;;;;6.70;4.45;;;8.00;57.60;;;;;;5012942;28;115090;-80
2023/05/08 05:49:45;;;;;;;5.25;4.15;;;8.00;57.80;;;;;;5018728;28;114686;-81
2023/05/08 05:52:13;;;;;;;6.28;4.32;;;8.00;57.50;;;;;;5043384;27;114572;-81
2023/05/08 05:54:41;;;;;;;5.70;3.90;;;7.80;58.20;;;;;;5016111;28;114778;-81
2023/05/08 05:57:10;;;;;;;6.15;4.22;;;7.80;58.90;;;;;;5002647;28;114628;-80
2023/05/08 05:59:37;;;;;;;7.47;4.80;;;7.90;58.80;;;;;;5012978;28;114648;-81
2023/05/08 06:02:09;;;;;;;6.75;4.43;;;8.20;57.90;;;;;;5014317;28;114546;-82
2023/05/08 06:04:37;;;;;;;6.25;4.18;;;8.20;57.30;;;;;;5011592;28;114782;-79
2023/05/08 06:07:06;;;;;;;5.85;4.10;;;8.10;57.20;;;;;;5017313;28;114940;-81
2023/05/08 06:09:33;;;;;;;5.50;3.85;;;8.10;57.70;;;;;;5010824;28;114574;-81
2023/05/08 06:12:00;;;;;;;6.10;3.88;;;8.10;57.50;;;;;;5012848;28;115363;-80
2023/05/08 06:14:28;;;;;;;7.05;4.68;;;8.10;57.90;;;;;;5010848;28;114533;-80
2023/05/08 06:16:55;;;;;;;7.70;4.90;;;8.20;57.20;;;;;;5006987;28;116482;-81
2023/05/08 06:19:23;;;;;;;6.38;4.35;;;8.10;57.20;;;;;;4996353;28;117788;-80
2023/05/08 06:21:51;;;;;;;6.95;4.93;;;8.10;57.00;;;;;;5010770;28;114646;-80
2023/05/08 06:24:18;;;;;;;5.82;4.30;;;8.00;57.10;;;;;;5013240;28;114401;-81
2023/05/08 06:26:45;;;;;;;6.22;4.70;;;7.90;57.30;;;;;;5011055;28;114923;-81
2023/05/08 06:29:12;;;;;;;6.43;4.25;;;7.90;57.40;;;;;;5014468;28;114672;-82
2023/05/08 06:31:39;;;;;;;5.82;4.10;;;8.00;58.10;;;;;;5009074;28;114420;-80
2023/05/08 06:34:06;;;;;;;7.57;4.43;;;8.10;57.70;;;;;;5017459;28;114573;-81
2023/05/08 06:36:35;;;;;;;6.10;4.63;;;8.20;56.80;;;;;;5022050;28;115311;-80
2023/05/08 06:39:05;;;;;;;7.05;4.95;;;8.10;57.10;;;;;;5020386;28;115763;-80
2023/05/08 06:41:33;;;;;;;7.80;4.78;;;8.10;57.50;;;;;;5021142;28;114395;-79
2023/05/08 06:44:00;;;;;;;8.65;5.45;;;8.10;58.00;;;;;;5015735;28;116594;-80
2023/05/08 06:46:28;;;;;;;9.38;5.57;;;8.20;57.40;;;;;;5021409;27;115069;-79
2023/05/08 06:48:58;;;;;;;7.07;5.43;;;8.20;57.50;;;;;;5017275;28;114853;-80
2023/05/08 06:51:26;;;;;;;7.10;5.78;;;8.20;57.70;;;;;;5006586;28;114682;-81
2023/05/08 06:53:53;;;;;;;8.00;6.20;;;8.20;57.60;;;;;;5020110;28;114397;-81
2023/05/08 06:56:23;;;;;;;10.05;6.90;;;8.30;57.10;;;;;;5022358;28;115314;-80
2023/05/08 06:58:50;;;;;;;10.27;7.03;;;8.20;56.70;;;;;;5019550;28;114756;-80
2023/05/08 07:01:34;;;;;;;8.60;6.43;;;8.10;56.90;;;;;;5004723;28;114480;-80
2023/05/08 07:04:02;;;;;;;8.45;6.32;;;8.00;57.00;;;;;;5018973;28;114540;-81
2023/05/08 07:06:30;;;;;;;6.47;4.80;;;8.00;57.40;;;;;;5005238;28;114991;-82
2023/05/08 07:08:57;;;;;;;8.18;6.32;;;8.10;58.00;;;;;;5002511;28;114647;-81
2023/05/08 07:11:25;;;;;;;7.13;5.88;;;8.20;57.60;;;;;;5002866;28;114261;-82
2023/05/08 07:13:53;;;;;;;8.60;6.40;;;8.40;57.60;;;;;;5002845;28;114524;-83
2023/05/08 07:16:20;;;;;;;6.80;5.93;;;8.60;57.00;;;;;;5016950;28;115279;-82
2023/05/08 07:18:48;;;;;;;8.77;6.25;;;8.60;56.30;;;;;;5002614;28;114581;-80
2023/05/08 07:21:16;;;;;;;8.25;5.82;;;8.60;56.60;;;;;;5002083;28;114997;-83
2023/05/08 07:23:44;;;;;;;7.68;6.03;;;8.70;56.30;;;;;;5001867;28;114428;-81
2023/05/08 07:26:11;;;;;;;6.88;5.97;;;8.70;56.20;;;;;;5003412;28;115381;-81
2023/05/08 07:28:38;;;;;;;7.57;5.82;;;8.80;56.00;;;;;;5016396;28;115172;-82
2023/05/08 07:31:08;;;;;;;7.43;5.80;;;8.70;55.30;;;;;;5003424;28;114694;-81
2023/05/08 07:33:35;;;;;;;6.55;5.75;;;8.60;55.80;;;;;;5002702;28;114993;-81
2023/05/08 07:36:02;;;;;;;7.28;5.43;;;8.50;56.10;;;;;;5003671;28;115444;-82
2023/05/08 07:38:29;;;;;;;10.20;6.45;;;8.50;56.80;;;;;;5017669;28;117661;-82
2023/05/08 07:40:58;;;;;;;9.18;6.50;;;8.50;56.30;;;;;;5002752;28;114562;-81
2023/05/08 07:43:25;;;;;;;8.60;5.80;;;8.40;55.80;;;;;;5021369;27;114694;-82
2023/05/08 07:45:52;;;;;;;9.20;6.15;;;8.20;56.20;;;;;;4990786;28;119872;-82
2023/05/08 07:48:20;;;;;;;8.73;5.95;;;8.20;56.60;;;;;;5018366;28;114647;-80
2023/05/08 07:50:49;;;;;;;8.20;6.28;;;8.20;57.00;;;;;;5003714;28;114600;-80
2023/05/08 07:53:16;;;;;;;9.05;6.45;;;8.30;56.80;;;;;;5017306;28;114440;-81
2023/05/08 07:55:43;;;;;;;9.70;6.72;;;8.60;56.90;;;;;;5004776;28;115002;-81
2023/05/08 07:58:10;;;;;;;8.15;5.25;;;8.70;55.80;;;;;;5002657;28;115811;-80
2023/05/08 08:00:39;;;;;;;8.60;5.68;;;8.70;56.30;;;;;;5015995;28;114616;-80
2023/05/08 08:03:06;;;;;;;11.40;6.07;;;8.80;55.80;;;;;;5000152;27;114655;-80
2023/05/08 08:05:33;;;;;;;12.25;7.32;;;9.00;55.40;;;;;;5017022;28;114275;-80
2023/05/08 08:08:00;;;;;;;12.43;7.68;;;9.10;54.60;;;;;;5020586;28;114712;-80
2023/05/08 08:10:28;;;;;;;10.45;7.18;;;8.90;54.30;;;;;;5020433;28;114528;-81
2023/05/08 08:12:56;;;;;;;7.22;5.40;;;8.70;54.10;;;;;;5020994;28;114363;-82
2023/05/08 08:15:23;;;;;;;9.23;6.43;;;8.50;55.10;;;;;;5019917;28;116050;-82
2023/05/08 08:17:50;;;;;;;9.82;5.60;;;8.50;55.00;;;;;;5020720;28;115276;-82
2023/05/08 08:20:17;;;;;;;7.55;5.90;;;8.50;55.10;;;;;;5021465;28;114331;-81
2023/05/08 08:22:45;;;;;;;7.97;5.80;;;8.50;55.00;;;;;;5020169;28;114188;-82
2023/05/08 08:25:12;;;;;;;8.95;5.72;;;8.50;54.40;;;;;;5020028;28;117539;-81
2023/05/08 08:27:40;;;;;;;7.00;5.82;;;8.30;54.80;;;;;;5019127;28;114663;-81
2023/05/08 08:30:07;;;;;;;8.88;5.80;;;8.40;55.10;;;;;;5002489;28;116478;-80
2023/05/08 08:32:44;;;;;;;9.60;6.05;;;8.40;54.50;;;;;;5001242;27;114338;-81
2023/05/08 08:35:11;;;;;;;7.00;5.20;;;8.40;54.30;;;;;;4999168;28;115791;-81
2023/05/08 08:37:40;;;;;;;9.07;5.60;;;8.30;54.70;;;;;;5000041;28;114874;-81
2023/05/08 08:40:07;;;;;;;9.32;6.03;;;8.30;54.60;;;;;;4997881;28;114557;-81
2023/05/08 08:42:34;;;;;;;12.70;5.28;;;8.30;54.70;;;;;;5018206;28;114321;-81
2023/05/08 08:45:02;;;;;;;6.97;4.85;;;8.50;55.20;;;;;;5018856;28;114990;-81
2023/05/08 08:47:40;;;;;;;6.97;4.75;;;8.80;53.90;;;;;;5022995;28;115114;-81
2023/05/08 08:50:07;;;;;;;6.75;4.65;;;9.00;53.90;;;;;;5024119;28;114412;-81
2023/05/08 08:52:49;;;;;;;7.03;4.43;;;9.20;53.50;;;;;;5021584;27;114774;-81
2023/05/08 08:55:17;;;;;;;8.48;5.05;;;9.50;53.10;;;;;;5017773;28;115667;-81
2023/05/08 08:58:11;;;;;;;7.00;4.80;;;9.70;51.90;;;;;;5002857;28;116072;-81
2023/05/08 09:00:39;;;;;;;7.53;5.05;;;9.80;51.00;;;;;;5009889;28;114469;-81
2023/05/08 09:03:06;;;;;;;7.40;4.80;;;9.70;51.20;;;;;;5001181;28;114598;-81
2023/05/08 09:05:34;;;;;;;6.53;4.63;;;9.70;51.30;;;;;;5015228;28;115116;-81
2023/05/08 09:08:01;;;;;;;6.07;4.85;;;9.80;51.00;;;;;;5000363;28;114598;-82
2023/05/08 09:10:30;;;;;;;6.35;4.97;;;9.70;50.90;;;;;;4987944;28;114451;-81
2023/05/08 09:12:57;;;;;;;11.40;5.25;;;9.70;50.40;;;;;;5002327;28;114494;-82
2023/05/08 09:15:25;;;;;;;6.57;4.70;;;9.70;50.90;;;;;;5003557;28;114927;-81
2023/05/08 09:17:55;;;;;;;6.50;4.53;;;9.70;50.60;;;;;;5003052;28;114878;-81
2023/05/08 09:20:22;;;;;;;6.60;4.57;;;9.50;50.90;;;;;;5002142;28;114457;-82
2023/05/08 09:22:50;;;;;;;5.45;4.03;;;9.60;50.50;;;;;;4990553;28;116917;-81
2023/05/08 09:25:20;;;;;;;6.03;4.10;;;9.40;51.00;;;;;;5004082;28;116313;-80
2023/05/08 09:28:16;;;;;;;7.03;4.45;;;9.50;50.60;;;;;;5021603;28;114597;-81
2023/05/08 09:30:57;;;;;;;6.88;4.10;;;9.60;51.00;;;;;;5019987;28;114533;-82
2023/05/08 09:33:26;;;;;;;5.50;3.95;;;9.60;50.60;;;;;;5022483;28;115974;-81
2023/05/08 09:35:54;;;;;;;7.22;4.55;;;9.70;51.30;;;;;;5022827;28;115096;-81
2023/05/08 09:38:35;;;;;;;5.10;3.85;;;9.80;50.40;;;;;;5038596;27;115816;-81
2023/05/08 09:41:14;;;;;;;6.30;4.47;;;9.80;50.20;;;;;;5023269;27;117852;-81
2023/05/08 09:43:44;;;;;;;7.97;4.40;;;9.90;50.50;;;;;;5023541;28;114452;-82
2023/05/08 09:46:25;;;;;;;8.13;4.35;;;9.80;50.90;;;;;;5022119;28;115114;-81
2023/05/08 09:48:54;;;;;;;6.40;4.47;;;10.10;50.20;;;;;;5020935;28;118844;-80
2023/05/08 09:51:22;;;;;;;6.63;4.45;;;10.10;49.80;;;;;;5023044;28;114355;-83
2023/05/08 09:53:53;;;;;;;7.95;5.05;;;10.20;49.70;;;;;;5023014;27;114389;-81
2023/05/08 09:56:38;;;;;;;6.13;4.07;;;10.00;49.40;;;;;;5020489;28;118903;-80
2023/05/08 09:59:23;;;;;;;6.55;4.70;;;10.00;49.90;;;;;;5002841;28;114693;-81
2023/05/08 10:01:50;;;;;;;8.68;4.72;;;10.20;50.20;;;;;;5021152;28;115240;-82
2023/05/08 10:04:34;;;;;;;7.65;4.32;;;10.20;49.80;;;;;;5022204;28;114572;-81
2023/05/08 10:07:07;;;;;;;6.32;4.30;;;10.30;49.50;;;;;;5010609;28;114964;-81
2023/05/08 10:09:38;;;;;;;7.43;3.85;;;10.30;49.20;;;;;;5001183;28;114945;-81
2023/05/08 10:12:17;;;;;;;6.78;3.85;;;10.30;48.50;;;;;;5002368;28;114334;-81
2023/05/08 10:14:44;;;;;;;5.35;3.85;;;10.30;48.60;;;;;;5001178;28;114649;-81
2023/05/08 10:17:25;;;;;;;8.13;3.83;;;10.40;48.20;;;;;;5018680;28;114899;-83
2023/05/08 10:19:57;;;;;;;5.82;3.63;;;10.50;48.00;;;;;;5020828;28;114792;-81
2023/05/08 10:22:25;;;;;;;6.05;3.42;;;10.60;47.70;;;;;;5022494;28;114488;-81
2023/05/08 10:24:56;;;;;;;4.35;3.20;;;10.50;47.30;;;;;;5021407;27;114589;-80
2023/05/08 10:27:35;;;;;;;4.82;3.17;;;10.40;47.20;;;;;;5021983;28;116120;-81
2023/05/08 10:30:03;;;;;;;4.93;3.40;;;10.40;46.70;;;;;;5001613;28;115000;-81
2023/05/08 10:32:37;;;;;;;7.15;3.15;;;10.30;47.00;;;;;;4968080;28;114573;-81
2023/05/08 10:35:06;;;;;;;8.47;3.83;;;10.30;47.50;;;;;;4988532;28;114468;-81
2023/05/08 10:37:36;;;;;;;5.18;3.50;;;10.30;47.70;;;;;;5021383;28;115053;-80
2023/05/08 10:40:05;;;;;;;7.30;4.15;;;10.50;47.50;;;;;;5021274;28;115291;-80
2023/05/08 10:42:33;;;;;;;5.25;3.25;;;10.50;47.20;;;;;;5028484;27;114154;-80
2023/05/08 10:45:00;;;;;;;4.68;3.20;;;10.60;46.90;;;;;;5022812;28;115142;-81
2023/05/08 10:48:02;;;;;;;4.47;3.00;;;10.60;46.60;;;;;;5020309;28;116970;-81
2023/05/08 10:50:55;;;;;;;5.15;3.50;;;10.70;46.00;;;;;;5020578;28;114871;-81
2023/05/08 10:53:34;;;;;;;4.80;3.53;;;10.60;45.40;;;;;;5021068;28;116625;-82
2023/05/08 10:56:02;;;;;;;5.40;3.33;;;10.50;46.40;;;;;;5021192;28;115005;-82
2023/05/08 10:58:30;;;;;;;5.78;3.25;;;10.60;46.70;;;;;;5020628;28;115383;-81
2023/05/08 11:01:05;;;;;;;5.22;3.65;;;10.70;46.90;;;;;;5020527;28;114680;-82
2023/05/08 11:03:42;;;;;;;6.03;3.45;;;10.70;46.00;;;;;;5021618;28;114522;-81
2023/05/08 11:06:10;;;;;;;6.35;3.95;;;10.70;46.30;;;;;;5021973;27;114578;-81
2023/05/08 11:08:48;;;;;;;5.78;3.88;;;10.70;45.90;;;;;;5000569;28;117073;-81
2023/05/08 11:11:32;;;;;;;6.45;3.75;;;10.70;45.80;;;;;;4981191;28;115059;-81
2023/05/08 11:14:06;;;;;;;5.70;3.45;;;10.60;45.70;;;;;;5019717;28;114598;-81
2023/05/08 11:17:01;;;;;;;6.53;3.20;;;10.40;46.00;;;;;;5022109;27;114680;-81
2023/05/08 11:19:28;;;;;;;4.53;3.53;;;10.50;46.30;;;;;;5021796;28;115133;-82
2023/05/08 11:22:14;;;;;;;6.00;3.60;;;10.50;45.80;;;;;;5020654;28;114750;-81
2023/05/08 11:25:08;;;;;;;4.43;3.17;;;10.50;45.70;;;;;;5021040;28;114436;-80
2023/05/08 11:27:45;;;;;;;8.05;3.35;;;10.40;46.60;;;;;;5019711;27;114481;-81
2023/05/08 11:30:25;;;;;;;5.75;3.60;;;10.50;46.50;;;;;;5021039;27;115268;-81
2023/05/08 11:33:07;;;;;;;5.78;3.30;;;10.50;45.70;;;;;;5021064;28;114645;-81
2023/05/08 11:36:00;;;;;;;4.90;3.55;;;10.60;46.30;;;;;;5020245;28;114523;-81
2023/05/08 11:38:34;;;;;;;6.30;3.55;;;10.70;45.80;;;;;;5020199;28;114492;-81
2023/05/08 11:41:09;;;;;;;6.88;4.90;;;10.80;46.40;;;;;;5021113;28;116938;-81
2023/05/08 11:43:40;;;;;;;;;;;10.90;45.70;;;;;;5003226;28;115973;-81
2023/05/08 11:46:15;;;;;;;6.53;4.03;;;10.80;46.50;;;;;;5022031;28;114527;-81
2023/05/08 11:48:43;;;;;;;4.45;3.25;;;10.80;45.70;;;;;;5020728;28;114585;-81
2023/05/08 11:55:18;;;;;;;5.70;3.70;;;10.80;45.40;;;;;;4997874;27;114669;-81
2023/05/08 11:58:25;;;;;;;5.47;3.55;;;10.70;45.90;;;;;;5021489;27;114614;-82
2023/05/08 12:01:22;;;;;;;5.35;3.40;;;10.70;46.20;;;;;;5019390;28;114539;-81
2023/05/08 12:04:45;;;;;;;5.85;3.85;;;10.90;46.00;;;;;;4990030;28;118444;-82
2023/05/08 12:07:12;;;;;;;6.20;4.18;;;10.90;45.20;;;;;;5019416;28;114818;-81
2023/05/08 12:09:56;;;;;;;6.45;3.65;;;10.80;45.40;;;;;;5004666;28;114509;-81
2023/05/08 12:12:41;;;;;;;6.75;3.70;;;10.80;46.10;;;;;;5021213;28;114477;-81
2023/05/08 12:15:13;;;;;;;5.97;3.88;;;10.90;46.20;;;;;;5000246;28;118041;-80
2023/05/08 12:17:43;;;;;;;6.43;3.78;;;11.00;46.40;;;;;;5018366;28;114667;-80
2023/05/08 12:20:17;;;;;;;6.70;3.38;;;11.20;45.60;;;;;;5020330;28;114258;-80
2023/05/08 12:22:51;;;;;;;7.82;3.63;;;11.20;45.60;;;;;;5002267;28;114436;-80
2023/05/08 12:25:19;;;;;;;5.85;3.80;;;11.20;45.20;;;;;;4981401;28;115007;-81
2023/05/08 12:27:46;;;;;;;6.18;3.20;;;11.10;44.80;;;;;;5000742;28;117000;-81
2023/05/08 12:30:16;;;;;;;5.40;3.45;;;11.20;45.10;;;;;;5001254;28;114465;-81
2023/05/08 12:32:44;;;;;;;6.05;3.55;;;11.20;44.40;;;;;;5000914;28;114467;-81
2023/05/08 12:35:13;;;;;;;5.93;3.72;;;11.20;44.70;;;;;;4998077;28;114981;-81
2023/05/08 12:37:40;;;;;;;6.53;3.45;;;11.10;45.10;;;;;;5024047;28;114822;-81
2023/05/08 12:40:27;;;;;;;11.13;3.90;;;11.20;45.10;;;;;;5002736;28;114232;-81
2023/05/08 12:42:56;;;;;;;6.05;4.28;;;11.20;45.40;;;;;;5000793;28;114560;-81
2023/05/08 12:45:26;;;;;;;6.20;4.18;;;11.20;45.10;;;;;;5000526;28;114908;-81
2023/05/08 12:47:58;;;;;;;6.80;4.18;;;11.10;45.50;;;;;;5000376;28;115914;-79
2023/05/08 12:50:37;;;;;;;5.18;3.83;;;11.10;45.80;;;;;;5003718;28;114643;-80
2023/05/08 12:53:05;;;;;;;7.30;3.88;;;11.10;45.50;;;;;;5003178;28;114505;-79
2023/05/08 12:55:36;;;;;;;7.80;4.28;;;11.00;45.50;;;;;;5002282;28;114958;-81
2023/05/08 12:58:17;;;;;;;7.57;4.30;;;11.00;45.70;;;;;;4983626;28;115105;-81
2023/05/08 13:00:48;;;;;;;6.15;4.10;;;11.00;45.90;;;;;;5023630;28;114887;-81
2023/05/08 13:03:28;;;;;;;7.22;3.67;;;11.00;45.90;;;;;;5023143;28;114590;-82
2023/05/08 13:05:59;;;;;;;5.25;3.72;;;11.10;45.80;;;;;;5023538;27;114968;-80
2023/05/08 13:08:34;;;;;;;6.43;4.10;;;11.10;45.80;;;;;;5022791;28;114613;-81
2023/05/08 13:11:04;;;;;;;6.78;4.60;;;11.20;45.70;;;;;;5023763;28;114604;-81